createdAt,value
2023-04-01T00:00:35.972Z,100.00
2023-04-01T00:03:13.755Z,100.00
2023-04-01T00:05:49.037Z,100.00
2023-04-01T00:09:32.032Z,100.00
2023-04-01T00:12:03.536Z,100.00
2023-04-01T00:15:30.405Z,100.00
2023-04-01T00:21:38.332Z,100.00
2023-04-01T00:24:05.989Z,100.00
2023-04-01T00:26:33.582Z,100.00
2023-04-01T00:29:01.910Z,100.00
2023-04-01T00:31:30.021Z,100.00
2023-04-01T00:33:57.891Z,100.00
2023-04-01T00:36:26.247Z,100.00
2023-04-01T00:38:53.992Z,100.00
2023-04-01T00:41:22.568Z,100.00
2023-04-01T00:43:52.144Z,100.00
2023-04-01T00:46:20.494Z,100.00
2023-04-01T00:48:56.328Z,100.00
2023-04-01T00:51:28.278Z,100.00
2023-04-01T00:53:59.180Z,100.00
2023-04-01T00:56:33.300Z,100.00
2023-04-01T00:59:19.771Z,100.00
2023-04-01T01:01:48.186Z,100.00
2023-04-01T01:04:42.047Z,100.00
2023-04-01T01:07:15.003Z,100.00
2023-04-01T01:10:05.979Z,100.00
2023-04-01T01:12:47.090Z,100.00
2023-04-01T01:15:49.907Z,100.00
2023-04-01T01:18:17.529Z,100.00
2023-04-01T01:21:18.716Z,100.00
2023-04-01T01:24:23.825Z,100.00
2023-04-01T01:27:04.084Z,100.00
2023-04-01T01:29:57.131Z,100.00
2023-04-01T01:32:40.021Z,100.00
2023-04-01T01:35:44.734Z,100.00
2023-04-01T01:38:25.458Z,100.00
2023-04-01T01:41:02.467Z,100.00
2023-04-01T01:43:36.751Z,100.00
2023-04-01T01:46:10.882Z,100.00
2023-04-01T01:48:39.865Z,100.00
2023-04-01T01:51:07.943Z,100.00
2023-04-01T01:53:36.696Z,100.00
2023-04-01T01:56:04.809Z,100.00
2023-04-01T01:58:42.266Z,100.00
2023-04-01T02:01:18.487Z,100.00
2023-04-01T02:03:48.079Z,100.00
2023-04-01T02:06:20.211Z,100.00
2023-04-01T02:09:07.817Z,100.00
2023-04-01T02:11:49.583Z,100.00
2023-04-01T02:14:23.625Z,100.00
2023-04-01T02:16:58.229Z,100.00
2023-04-01T02:19:33.049Z,100.00
2023-04-01T02:22:03.897Z,100.00
2023-04-01T02:24:34.617Z,100.00
2023-04-01T02:27:02.585Z,100.00
2023-04-01T02:29:31.494Z,100.00
2023-04-01T02:32:00.104Z,100.00
2023-04-01T02:34:28.117Z,100.00
2023-04-01T02:36:57.201Z,100.00
2023-04-01T02:39:26.675Z,100.00
2023-04-01T02:41:54.393Z,100.00
2023-04-01T02:44:21.911Z,100.00
2023-04-01T02:46:49.596Z,100.00
2023-04-01T02:49:17.237Z,100.00
2023-04-01T02:51:46.023Z,100.00
2023-04-01T02:54:13.730Z,100.00
2023-04-01T02:56:41.430Z,100.00
2023-04-01T02:59:08.970Z,100.00
2023-04-01T03:01:36.759Z,100.00
2023-04-01T03:04:05.081Z,100.00
2023-04-01T03:06:32.656Z,100.00
2023-04-01T03:09:00.177Z,100.00
2023-04-01T03:11:28.036Z,100.00
2023-04-01T03:13:55.666Z,100.00
2023-04-01T03:16:23.747Z,100.00
2023-04-01T03:18:53.758Z,100.00
2023-04-01T03:21:24.153Z,100.00
2023-04-01T03:23:51.977Z,100.00
2023-04-01T03:26:20.168Z,100.00
2023-04-01T03:28:47.793Z,100.00
2023-04-01T03:31:17.241Z,100.00
2023-04-01T03:33:51.156Z,100.00
2023-04-01T03:36:19.325Z,100.00
2023-04-01T03:38:48.099Z,100.00
2023-04-01T03:41:22.144Z,100.00
2023-04-01T03:43:49.839Z,100.00
2023-04-01T03:46:21.928Z,100.00
2023-04-01T03:48:49.731Z,100.00
2023-04-01T03:51:17.427Z,100.00
2023-04-01T03:53:45.007Z,100.00
2023-04-01T03:56:13.099Z,100.00
2023-04-01T03:58:40.775Z,100.00
2023-04-01T04:01:22.079Z,100.00
2023-04-01T04:03:53.708Z,100.00
2023-04-01T04:06:24.239Z,100.00
2023-04-01T04:08:52.547Z,100.00
2023-04-01T04:11:21.200Z,100.00
2023-04-01T04:13:49.588Z,100.00
2023-04-01T04:16:18.481Z,100.00
2023-04-01T04:18:52.087Z,100.00
2023-04-01T04:21:20.659Z,100.00
2023-04-01T04:23:48.240Z,100.00
2023-04-01T04:26:18.264Z,100.00
2023-04-01T04:28:52.371Z,100.00
2023-04-01T04:31:22.365Z,100.00
2023-04-01T04:33:52.425Z,100.00
2023-04-01T04:36:21.143Z,100.00
2023-04-01T04:38:50.935Z,100.00
2023-04-01T04:41:19.863Z,100.00
2023-04-01T04:43:57.607Z,100.00
2023-04-01T04:46:27.132Z,100.00
2023-04-01T04:49:01.371Z,100.00
2023-04-01T04:51:29.397Z,100.00
2023-04-01T04:53:58.171Z,100.00
2023-04-01T04:56:37.564Z,100.00
2023-04-01T04:59:09.673Z,100.00
2023-04-01T05:01:46.525Z,100.00
2023-04-01T05:04:14.784Z,100.00
2023-04-01T05:06:45.354Z,100.00
2023-04-01T05:09:14.186Z,100.00
2023-04-01T05:11:42.459Z,100.00
2023-04-01T05:14:17.974Z,100.00
2023-04-01T05:16:55.490Z,100.00
2023-04-01T05:19:24.380Z,100.00
2023-04-01T05:21:53.932Z,100.00
2023-04-01T05:24:21.518Z,100.00
2023-04-01T05:26:49.257Z,100.00
2023-04-01T05:29:16.748Z,100.00
2023-04-01T05:31:46.289Z,100.00
2023-04-01T05:34:14.693Z,100.00
2023-04-01T05:36:43.110Z,100.00
2023-04-01T05:39:10.910Z,100.00
2023-04-01T05:41:39.913Z,100.00
2023-04-01T05:44:07.368Z,100.00
2023-04-01T05:46:40.583Z,100.00
2023-04-01T05:49:28.921Z,100.00
2023-04-01T05:51:57.380Z,100.00
2023-04-01T05:54:24.920Z,100.00
2023-04-01T05:56:52.743Z,100.00
2023-04-01T05:59:21.371Z,100.00
2023-04-01T06:01:49.029Z,100.00
2023-04-01T06:04:18.796Z,100.00
2023-04-01T06:06:47.218Z,100.00
2023-04-01T06:09:18.238Z,100.00
2023-04-01T06:12:09.880Z,100.00
2023-04-01T06:14:57.302Z,100.00
2023-04-01T06:17:44.286Z,100.00
2023-04-01T06:20:27.141Z,100.00
2023-04-01T06:23:11.844Z,100.00
2023-04-01T06:25:46.455Z,100.00
2023-04-01T06:28:38.882Z,100.00
2023-04-01T06:31:06.478Z,100.00
2023-04-01T06:34:07.903Z,100.00
2023-04-01T06:37:01.559Z,100.00
2023-04-01T06:40:10.007Z,100.00
2023-04-01T06:43:02.428Z,100.00
2023-04-01T06:46:08.934Z,100.00
2023-04-01T06:49:07.731Z,100.00
2023-04-01T06:52:36.101Z,100.00
2023-04-01T06:55:22.869Z,100.00
2023-04-01T06:58:20.759Z,100.00
2023-04-01T07:00:53.135Z,100.00
2023-04-01T07:03:38.668Z,100.00
2023-04-01T07:06:39.572Z,100.00
2023-04-01T07:09:13.061Z,100.00
2023-04-01T07:13:17.240Z,100.00
2023-04-01T07:20:22.037Z,100.00
2023-04-01T07:23:04.667Z,100.00
2023-04-01T07:26:25.449Z,93.17
2023-04-01T07:29:28.103Z,92.48
2023-04-01T07:32:19.380Z,89.82
2023-04-01T07:35:10.109Z,95.57
2023-04-01T07:37:43.603Z,100.00
2023-04-01T07:40:11.192Z,95.84
2023-04-01T07:43:06.351Z,93.90
2023-04-01T07:45:54.567Z,97.65
2023-04-01T08:02:16.934Z,72.91
2023-04-01T08:06:09.872Z,83.51
2023-04-01T08:09:07.045Z,85.52
2023-04-01T08:13:39.989Z,73.90
2023-04-01T08:31:37.585Z,54.91
2023-04-01T08:34:19.512Z,50.00
2023-04-01T08:37:10.705Z,57.32
2023-04-01T08:40:01.388Z,66.80
2023-04-01T08:43:05.771Z,68.08
2023-04-01T08:45:57.243Z,71.12
2023-04-01T08:48:58.859Z,53.27
2023-04-01T08:51:48.821Z,53.19
2023-04-01T08:54:30.727Z,55.08
2023-04-01T08:57:22.780Z,48.90
2023-04-01T09:00:21.847Z,55.32
2023-04-01T09:03:38.729Z,61.77
2023-04-01T09:06:32.863Z,52.00
2023-04-01T09:09:27.086Z,59.04
2023-04-01T09:12:13.869Z,57.45
2023-04-01T09:15:26.164Z,49.00
2023-04-01T09:18:24.668Z,49.38
2023-04-01T09:21:11.713Z,53.26
2023-04-01T09:23:58.037Z,45.97
2023-04-01T09:27:02.172Z,47.58
2023-04-01T09:30:04.140Z,48.84
2023-04-01T09:33:06.432Z,43.81
2023-04-01T09:35:51.910Z,41.48
2023-04-01T09:38:51.984Z,40.57
2023-04-01T09:41:58.050Z,40.29
2023-04-01T09:44:57.747Z,43.72
2023-04-01T09:47:47.346Z,50.68
2023-04-01T09:50:37.844Z,59.81
2023-04-01T09:53:30.632Z,49.22
2023-04-01T09:56:49.289Z,49.39
2023-04-01T10:00:46.892Z,47.04
2023-04-01T10:06:58.062Z,46.54
2023-04-01T10:09:54.979Z,49.32
2023-04-01T10:12:40.826Z,50.73
2023-04-01T10:15:37.219Z,50.78
2023-04-01T10:18:09.076Z,62.41
2023-04-01T10:20:36.757Z,57.47
2023-04-01T10:23:36.274Z,55.23
2023-04-01T10:26:10.090Z,52.41
2023-04-01T10:47:04.191Z,47.11
2023-04-01T11:21:53.358Z,45.25
2023-04-01T12:23:48.263Z,52.22
2023-04-01T12:27:40.212Z,46.09
2023-04-01T12:35:11.250Z,41.81
2023-04-01T12:38:46.829Z,41.74
2023-04-01T13:09:01.891Z,38.58
2023-04-01T13:12:29.969Z,36.50
2023-04-01T13:15:29.592Z,38.11
2023-04-01T13:18:18.755Z,40.55
2023-04-01T13:20:55.503Z,41.83
2023-04-01T13:24:11.160Z,39.62
2023-04-01T13:27:06.612Z,38.72
2023-04-01T13:29:49.607Z,40.09
2023-04-01T13:36:16.967Z,35.81
2023-04-01T13:39:48.061Z,36.87
2023-04-01T13:42:41.148Z,36.46
2023-04-01T13:45:27.904Z,35.46
2023-04-01T13:48:04.773Z,35.06
2023-04-01T13:51:08.759Z,36.16
2023-04-01T13:53:53.219Z,35.41
2023-04-01T13:56:35.623Z,33.98
2023-04-01T13:59:27.708Z,35.57
2023-04-01T14:02:34.312Z,35.95
2023-04-01T14:05:10.844Z,35.13
2023-04-01T14:07:57.157Z,33.67
2023-04-01T14:11:02.070Z,36.32
2023-04-01T14:14:08.248Z,35.54
2023-04-01T14:16:58.587Z,36.75
2023-04-01T14:19:47.636Z,37.75
2023-04-01T14:23:10.158Z,34.34
2023-04-01T14:25:46.917Z,34.26
2023-04-01T14:28:42.011Z,33.29
2023-04-01T14:31:24.637Z,34.02
2023-04-01T14:34:13.034Z,33.28
2023-04-01T14:36:58.679Z,33.74
2023-04-01T14:40:30.066Z,32.85
2023-04-01T14:43:21.258Z,36.02
2023-04-01T14:46:15.799Z,30.91
2023-04-01T14:49:03.844Z,29.76
2023-04-01T14:51:40.735Z,32.73
2023-04-01T14:54:30.483Z,28.19
2023-04-01T14:57:14.155Z,27.75
2023-04-01T14:59:50.883Z,29.57
2023-04-01T15:03:09.068Z,27.17
2023-04-01T15:05:54.766Z,32.74
2023-04-01T15:08:27.958Z,32.05
2023-04-01T15:10:58.422Z,32.30
2023-04-01T15:13:34.801Z,31.64
2023-04-01T15:16:02.262Z,31.16
2023-04-01T15:18:51.528Z,33.22
2023-04-01T15:21:35.185Z,32.10
2023-04-01T15:24:39.442Z,34.66
2023-04-01T15:27:13.939Z,33.92
2023-04-01T15:29:53.362Z,33.33
2023-04-01T15:32:31.284Z,33.95
2023-04-01T15:35:16.415Z,34.26
2023-04-01T15:37:56.949Z,34.11
2023-04-01T15:40:43.201Z,34.36
2023-04-01T15:43:25.535Z,35.04
2023-04-01T15:45:59.297Z,35.29
2023-04-01T15:48:40.592Z,36.60
2023-04-01T15:51:21.414Z,36.27
2023-04-01T15:54:03.953Z,35.75
2023-04-01T15:56:51.038Z,35.57
2023-04-01T16:00:12.021Z,32.73
2023-04-01T16:02:53.915Z,32.68
2023-04-01T16:05:27.097Z,32.69
2023-04-01T16:08:02.572Z,32.53
2023-04-01T16:10:45.580Z,32.07
2023-04-01T16:13:45.159Z,33.48
2023-04-01T16:17:01.793Z,30.52
2023-04-01T16:19:50.179Z,34.23
2023-04-01T16:22:27.662Z,33.69
2023-04-01T16:25:32.969Z,32.32
2023-04-01T16:28:35.288Z,32.54
2023-04-01T16:31:28.801Z,33.51
2023-04-01T16:34:17.234Z,32.57
2023-04-01T16:36:53.883Z,33.72
2023-04-01T16:39:36.413Z,32.81
2023-04-01T16:42:29.949Z,33.21
2023-04-01T16:45:09.446Z,33.13
2023-04-01T16:47:42.266Z,32.80
2023-04-01T16:50:25.121Z,33.77
2023-04-01T16:53:04.417Z,33.87
2023-04-01T16:55:52.113Z,34.10
2023-04-01T16:58:26.005Z,35.03
2023-04-01T17:01:10.184Z,33.86
2023-04-01T17:03:46.848Z,36.00
2023-04-01T17:06:45.225Z,36.55
2023-04-01T17:09:37.303Z,36.20
2023-04-01T17:12:45.191Z,34.62
2023-04-01T17:15:31.462Z,35.65
2023-04-01T17:18:05.022Z,35.69
2023-04-01T17:20:39.358Z,36.01
2023-04-01T17:23:21.354Z,36.74
2023-04-01T17:26:06.917Z,38.17
2023-04-01T17:29:16.327Z,38.77
2023-04-01T17:32:03.914Z,39.44
2023-04-01T17:34:34.926Z,40.30
2023-04-01T17:37:17.441Z,41.29
2023-04-01T17:39:54.483Z,41.65
2023-04-01T17:42:40.953Z,42.79
2023-04-01T17:45:17.596Z,43.24
2023-04-01T17:47:55.767Z,45.02
2023-04-01T17:50:37.602Z,44.53
2023-04-01T17:53:43.169Z,45.50
2023-04-01T17:56:23.536Z,46.73
2023-04-01T17:59:04.042Z,47.26
2023-04-01T18:01:44.350Z,48.58
2023-04-01T18:04:38.559Z,48.89
2023-04-01T18:07:26.621Z,49.53
2023-04-01T18:10:26.460Z,49.71
2023-04-01T18:13:31.444Z,51.16
2023-04-01T18:16:19.340Z,53.72
2023-04-01T18:19:02.726Z,53.79
2023-04-01T18:21:50.009Z,53.33
2023-04-01T18:24:43.126Z,55.92
2023-04-01T18:27:10.645Z,55.70
2023-04-01T18:29:46.941Z,56.27
2023-04-01T18:32:17.123Z,55.82
2023-04-01T18:35:15.572Z,57.07
2023-04-01T18:38:24.690Z,57.65
2023-04-01T18:41:14.092Z,58.96
2023-04-01T18:43:57.861Z,58.48
2023-04-01T18:46:46.980Z,61.05
2023-04-01T18:49:44.632Z,62.93
2023-04-01T18:52:21.436Z,64.17
2023-04-01T18:55:02.034Z,65.82
2023-04-01T18:57:58.274Z,66.61
2023-04-01T19:00:44.281Z,68.19
2023-04-01T19:03:27.668Z,68.97
2023-04-01T19:06:00.136Z,68.29
2023-04-01T19:08:35.459Z,68.47
2023-04-01T19:11:18.050Z,67.90
2023-04-01T19:14:32.497Z,68.25
2023-04-01T19:17:11.009Z,71.35
2023-04-01T19:20:10.641Z,72.22
2023-04-01T19:22:53.231Z,71.12
2023-04-01T19:25:35.542Z,70.79
2023-04-01T19:28:33.192Z,70.74
2023-04-01T19:31:16.749Z,71.44
2023-04-01T19:33:55.987Z,72.13
2023-04-01T19:36:39.911Z,69.52
2023-04-01T19:39:46.550Z,63.64
2023-04-01T19:42:42.554Z,66.00
2023-04-01T19:45:31.792Z,66.38
2023-04-01T19:48:17.267Z,68.49
2023-04-01T19:50:48.870Z,72.22
2023-04-01T19:53:27.169Z,74.92
2023-04-01T19:56:18.092Z,76.73
2023-04-01T19:58:55.511Z,78.88
2023-04-01T20:01:44.907Z,78.64
2023-04-01T20:04:18.379Z,79.73
2023-04-01T20:06:51.911Z,80.58
2023-04-01T20:09:35.070Z,80.57
2023-04-01T20:12:13.232Z,81.47
2023-04-01T20:14:50.074Z,80.52
2023-04-01T20:17:25.851Z,80.61
2023-04-01T20:20:20.061Z,80.41
2023-04-01T20:34:00.734Z,85.39
2023-04-01T20:37:12.291Z,83.46
2023-04-01T20:40:05.438Z,84.57
2023-04-01T20:43:21.509Z,80.25
2023-04-01T20:46:10.410Z,79.07
2023-04-01T20:49:14.628Z,75.33
2023-04-01T20:51:57.216Z,74.59
2023-04-01T20:55:10.864Z,72.28
2023-04-01T20:57:47.354Z,71.07
2023-04-01T21:00:19.132Z,71.34
2023-04-01T21:03:19.210Z,71.37
2023-04-01T21:22:45.696Z,81.41
2023-04-01T21:26:09.895Z,84.23
2023-04-01T21:28:55.152Z,95.06
2023-04-01T21:31:22.629Z,100.00
2023-04-01T21:34:27.424Z,100.00
2023-04-01T21:36:55.099Z,100.00
2023-04-01T21:39:42.423Z,100.00
2023-04-01T21:42:43.789Z,99.77
2023-04-01T21:45:19.176Z,100.00
2023-04-01T21:48:08.369Z,100.00
2023-04-01T21:50:57.160Z,100.00
2023-04-01T21:54:09.960Z,100.00
2023-04-01T21:56:46.332Z,100.00
2023-04-01T21:59:44.594Z,100.00
2023-04-01T22:02:33.708Z,100.00
2023-04-01T22:05:23.634Z,100.00
2023-04-01T22:07:57.474Z,99.45
2023-04-01T22:10:42.573Z,98.55
2023-04-01T22:13:44.505Z,98.77
2023-04-01T22:16:41.080Z,98.32
2023-04-01T22:19:42.976Z,97.45
2023-04-01T22:22:52.720Z,95.96
2023-04-01T22:25:30.385Z,95.53
2023-04-01T22:50:35.483Z,100.00
2023-04-01T22:53:15.460Z,100.00
2023-04-01T22:56:03.366Z,100.00
2023-04-01T22:58:41.718Z,100.00
2023-04-01T23:01:17.859Z,100.00
2023-04-01T23:03:48.661Z,100.00
2023-04-01T23:06:28.056Z,100.00
2023-04-01T23:09:27.949Z,100.00
2023-04-01T23:12:04.529Z,100.00
2023-04-01T23:14:41.870Z,100.00
2023-04-01T23:17:36.564Z,100.00
2023-04-01T23:20:13.618Z,100.00
2023-04-01T23:22:57.801Z,100.00
2023-04-01T23:25:37.419Z,100.00
2023-04-01T23:28:41.540Z,100.00
2023-04-01T23:31:30.506Z,100.00
2023-04-01T23:34:01.893Z,100.00
2023-04-01T23:36:32.025Z,100.00
2023-04-01T23:39:04.596Z,100.00
2023-04-01T23:41:33.973Z,100.00
2023-04-01T23:44:06.460Z,100.00
2023-04-01T23:46:36.816Z,100.00
2023-04-01T23:49:06.268Z,100.00
2023-04-01T23:51:40.682Z,100.00
2023-04-01T23:54:28.100Z,100.00
2023-04-01T23:56:57.762Z,100.00
2023-04-01T23:59:30.140Z,100.00
